Akiak, Alaska
Current Conditions -  °F | °C
As of 7:56 AM on Sunday 23 Nov 2014 (Local Time) from PFKW Reporting Station
Clear Clear  
Wind Chill:   Ceiling: Unl
Heat Index: 15°   Visibility: 10mi
Dew Point: 11°   Wind: 9mph
Humidity: 84%   Direction: 30°NNE
Pressure: 29.3"   Gusts: NA
Location:  60.92°N, 161.23°W
Report Text: PFKW 231656Z AUTO 03008KT 10SM CLR M09/M12 A2930 RMK AO2 SLP921 T10941117 FZRANO $
Loading
Personal Weather Stations






























Interactive Weather Map New forecast layout! Learn more

10-Day Weather Forecast

Advertisements
Track Severe Weather on mobile